createdAt,value
2018-10-05T00:01:42.478Z,30.23
2018-10-05T00:04:10.827Z,31.95
2018-10-05T00:06:39.145Z,30.43
2018-10-05T00:09:10.128Z,31.00
2018-10-05T00:11:38.579Z,31.93
2018-10-05T00:14:06.944Z,30.50
2018-10-05T00:16:35.296Z,31.68
2018-10-05T00:19:03.596Z,29.60
2018-10-05T00:21:32.092Z,30.48
2018-10-05T00:24:00.776Z,28.95
2018-10-05T00:26:29.121Z,28.60
2018-10-05T00:28:57.456Z,27.45
2018-10-05T00:31:25.780Z,26.95
2018-10-05T00:33:54.086Z,27.50
2018-10-05T00:36:22.424Z,27.90
2018-10-05T00:38:50.768Z,29.27
2018-10-05T00:41:19.147Z,27.60
2018-10-05T00:43:47.475Z,27.55
2018-10-05T00:46:15.920Z,25.17
2018-10-05T00:48:44.280Z,26.20
2018-10-05T00:51:13.026Z,25.35
2018-10-05T00:53:41.357Z,24.87
2018-10-05T00:56:10.364Z,25.50
2018-10-05T00:58:38.695Z,25.55
2018-10-05T01:01:07.145Z,25.50
2018-10-05T01:03:35.452Z,24.77
2018-10-05T01:06:03.784Z,24.37
2018-10-05T01:08:32.132Z,23.85
2018-10-05T01:11:00.501Z,24.27
2018-10-05T01:13:28.789Z,23.83
2018-10-05T01:15:57.240Z,24.23
2018-10-05T01:18:25.539Z,25.32
2018-10-05T01:20:53.957Z,23.38
2018-10-05T01:23:22.314Z,22.98
2018-10-05T01:25:50.689Z,24.30
2018-10-05T01:28:19.039Z,23.20
2018-10-05T01:30:47.348Z,22.93
2018-10-05T01:33:16.185Z,22.22
2018-10-05T01:35:45.310Z,23.18
2018-10-05T01:38:14.072Z,22.65
2018-10-05T01:40:43.372Z,22.87
2018-10-05T01:43:11.794Z,23.40
2018-10-05T01:45:40.248Z,23.40
2018-10-05T01:48:08.722Z,22.65
2018-10-05T01:50:37.012Z,23.62
2018-10-05T01:53:05.654Z,22.40
2018-10-05T01:55:34.114Z,23.10
2018-10-05T01:58:02.434Z,22.93
2018-10-05T02:00:30.745Z,22.75
2018-10-05T02:02:59.149Z,23.07
2018-10-05T02:05:27.538Z,21.77
2018-10-05T02:07:55.820Z,22.43
2018-10-05T02:10:24.146Z,22.27
2018-10-05T02:12:52.605Z,22.73
2018-10-05T02:15:20.948Z,22.77
2018-10-05T02:17:49.270Z,21.65
2018-10-05T02:20:17.597Z,21.80
2018-10-05T02:22:45.925Z,21.50
2018-10-05T02:25:14.354Z,21.50
2018-10-05T02:27:42.693Z,22.55
2018-10-05T02:30:11.248Z,21.30
2018-10-05T02:32:39.665Z,22.40
2018-10-05T02:35:07.981Z,21.87
2018-10-05T02:37:36.350Z,21.97
2018-10-05T02:40:04.714Z,20.40
2018-10-05T02:42:33.073Z,23.97
2018-10-05T02:45:01.432Z,21.82
2018-10-05T02:47:29.805Z,22.23
2018-10-05T02:49:58.198Z,20.82
2018-10-05T02:52:26.550Z,21.57
2018-10-05T02:54:54.999Z,20.73
2018-10-05T02:57:23.290Z,21.03
2018-10-05T02:59:51.624Z,21.40
2018-10-05T03:02:33.744Z,21.77
2018-10-05T03:05:02.146Z,20.62
2018-10-05T03:07:31.276Z,21.42
2018-10-05T03:10:00.737Z,21.57
2018-10-05T03:12:29.587Z,20.70
2018-10-05T03:14:58.092Z,20.63
2018-10-05T03:17:26.469Z,21.37
2018-10-05T03:19:54.892Z,22.60
2018-10-05T03:22:23.331Z,21.10
2018-10-05T03:24:51.808Z,21.63
2018-10-05T03:27:20.256Z,21.60
2018-10-05T03:29:48.677Z,21.97
2018-10-05T03:32:17.059Z,21.73
2018-10-05T03:34:45.734Z,21.77
2018-10-05T03:37:14.600Z,21.10
2018-10-05T03:39:43.085Z,22.50
2018-10-05T03:42:11.685Z,22.33
2018-10-05T03:44:40.246Z,22.03
2018-10-05T03:47:08.656Z,22.62
2018-10-05T03:49:37.293Z,21.27
2018-10-05T03:52:05.878Z,21.63
2018-10-05T03:54:34.322Z,21.77
2018-10-05T03:57:02.779Z,21.53
2018-10-05T03:59:31.129Z,21.70
2018-10-05T04:01:59.501Z,21.77
2018-10-05T04:04:27.895Z,22.00
2018-10-05T04:06:56.268Z,21.25
2018-10-05T04:09:24.722Z,21.57
2018-10-05T04:11:53.049Z,21.12
2018-10-05T04:14:21.502Z,20.27
2018-10-05T04:16:49.837Z,21.47
2018-10-05T04:19:18.150Z,21.70
2018-10-05T04:21:46.610Z,19.47
2018-10-05T04:24:15.020Z,21.10
2018-10-05T04:26:43.445Z,20.43
2018-10-05T04:29:11.816Z,21.17
2018-10-05T04:31:40.161Z,20.90
2018-10-05T04:34:08.580Z,21.40
2018-10-05T04:36:37.138Z,21.87
2018-10-05T04:39:06.965Z,22.33
2018-10-05T04:41:35.686Z,21.57
2018-10-05T04:44:04.162Z,21.80
2018-10-05T04:46:32.659Z,21.47
2018-10-05T04:49:01.121Z,22.33
2018-10-05T04:51:29.477Z,21.63
2018-10-05T04:53:57.869Z,21.83
2018-10-05T04:56:26.296Z,22.60
2018-10-05T04:58:54.668Z,22.60
2018-10-05T05:01:23.997Z,21.77
2018-10-05T05:03:52.409Z,21.73
2018-10-05T05:06:21.141Z,22.37
2018-10-05T05:08:49.889Z,22.73
2018-10-05T05:11:18.291Z,23.03
2018-10-05T05:13:46.768Z,21.57
2018-10-05T05:16:17.920Z,22.27
2018-10-05T05:18:46.513Z,21.10
2018-10-05T05:21:14.924Z,20.53
2018-10-05T05:23:43.426Z,21.47
2018-10-05T05:26:12.218Z,21.50
2018-10-05T05:28:40.707Z,22.10
2018-10-05T05:31:09.403Z,21.93
2018-10-05T05:33:38.787Z,21.93
2018-10-05T05:36:08.011Z,22.80
2018-10-05T05:38:36.634Z,23.30
2018-10-05T05:41:05.389Z,22.50
2018-10-05T05:43:34.154Z,22.90
2018-10-05T05:46:02.663Z,22.13
2018-10-05T05:48:32.639Z,22.13
2018-10-05T05:51:01.064Z,20.87
2018-10-05T05:53:29.515Z,22.47
2018-10-05T05:55:57.889Z,21.93
2018-10-05T05:58:26.268Z,23.75
2018-10-05T06:00:54.709Z,21.90
2018-10-05T06:03:23.032Z,24.23
2018-10-05T06:05:52.007Z,22.37
2018-10-05T06:08:20.548Z,22.02
2018-10-05T06:10:49.799Z,21.77
2018-10-05T06:13:18.170Z,22.30
2018-10-05T06:15:46.517Z,21.97
2018-10-05T06:18:14.926Z,22.30
2018-10-05T06:20:43.299Z,21.70
2018-10-05T06:23:11.782Z,23.03
2018-10-05T06:25:40.297Z,21.37
2018-10-05T06:28:10.075Z,23.23
2018-10-05T06:30:38.680Z,23.40
2018-10-05T06:33:07.209Z,23.03
2018-10-05T06:35:35.592Z,22.50
2018-10-05T06:38:04.115Z,23.40
2018-10-05T06:40:32.537Z,21.33
2018-10-05T06:43:01.029Z,22.37
2018-10-05T06:45:29.547Z,22.30
2018-10-05T06:47:58.086Z,23.20
2018-10-05T06:50:26.589Z,22.53
2018-10-05T06:52:55.438Z,21.80
2018-10-05T06:55:23.909Z,21.43
2018-10-05T06:57:52.320Z,21.47
2018-10-05T07:00:20.850Z,21.70
2018-10-05T07:02:49.520Z,23.77
2018-10-05T07:05:18.003Z,21.95
2018-10-05T07:07:46.468Z,21.83
2018-10-05T07:10:15.374Z,22.03
2018-10-05T07:12:44.293Z,22.43
2018-10-05T07:15:12.824Z,22.60
2018-10-05T07:17:41.657Z,20.92
2018-10-05T07:20:11.085Z,21.23
2018-10-05T07:22:39.832Z,22.13
2018-10-05T07:25:08.445Z,20.85
2018-10-05T07:27:37.994Z,22.00
2018-10-05T07:30:08.813Z,21.30
2018-10-05T07:32:37.308Z,20.70
2018-10-05T07:35:05.721Z,20.68
2018-10-05T07:37:34.141Z,19.42
2018-10-05T07:40:03.450Z,20.37
2018-10-05T07:42:34.207Z,20.92
2018-10-05T07:45:02.906Z,20.62
2018-10-05T07:47:31.406Z,19.67
2018-10-05T07:50:07.152Z,18.98
2018-10-05T07:52:35.779Z,19.52
2018-10-05T07:55:04.229Z,18.17
2018-10-05T07:57:32.752Z,19.00
2018-10-05T08:00:01.144Z,18.27
2018-10-05T08:02:29.523Z,18.25
2018-10-05T08:04:57.868Z,18.25
2018-10-05T08:07:26.312Z,17.70
2018-10-05T08:09:54.693Z,16.90
2018-10-05T08:12:23.140Z,17.10
2018-10-05T08:14:51.489Z,17.17
2018-10-05T08:17:19.844Z,17.52
2018-10-05T08:19:48.208Z,17.10
2018-10-05T08:22:16.509Z,17.23
2018-10-05T08:24:44.877Z,18.02
2018-10-05T08:27:13.280Z,15.38
2018-10-05T08:29:41.612Z,16.40
2018-10-05T08:32:09.878Z,16.02
2018-10-05T08:34:38.305Z,16.37
2018-10-05T08:37:08.532Z,15.28
2018-10-05T08:39:36.909Z,15.43
2018-10-05T08:42:05.329Z,16.05
2018-10-05T08:44:33.709Z,15.65
2018-10-05T08:47:02.337Z,14.25
2018-10-05T08:49:30.916Z,14.47
2018-10-05T08:51:59.287Z,14.23
2018-10-05T08:54:27.663Z,13.58
2018-10-05T08:56:56.072Z,10.60
2018-10-05T08:59:24.381Z,9.30
2018-10-05T09:01:52.687Z,8.58
2018-10-05T09:04:21.038Z,8.63
2018-10-05T09:06:49.408Z,8.43
2018-10-05T09:09:17.770Z,8.85
2018-10-05T09:11:46.078Z,8.73
2018-10-05T09:14:14.352Z,7.42
2018-10-05T09:16:42.677Z,9.13
2018-10-05T09:19:10.976Z,8.48
2018-10-05T09:21:39.332Z,8.90
2018-10-05T09:24:08.254Z,8.95
2018-10-05T09:26:36.724Z,8.73
2018-10-05T09:29:05.145Z,8.63
2018-10-05T09:31:33.622Z,9.05
2018-10-05T09:34:01.996Z,9.50
2018-10-05T09:36:30.353Z,8.38
2018-10-05T09:38:58.828Z,8.58
2018-10-05T09:41:27.261Z,8.88
2018-10-05T09:43:55.661Z,9.25
2018-10-05T09:46:24.135Z,9.15
2018-10-05T09:48:52.510Z,10.00
2018-10-05T09:51:20.921Z,10.13
2018-10-05T09:53:49.243Z,9.40
2018-10-05T09:56:17.686Z,9.33
2018-10-05T09:58:46.017Z,10.05
2018-10-05T10:01:19.852Z,10.82
2018-10-05T10:03:48.222Z,10.05
2018-10-05T10:06:16.566Z,10.65
2018-10-05T10:08:44.892Z,10.28
2018-10-05T10:11:13.197Z,11.05
2018-10-05T10:13:41.559Z,11.30
2018-10-05T10:16:10.072Z,11.10
2018-10-05T10:18:38.435Z,11.18
2018-10-05T10:21:06.912Z,10.80
2018-10-05T10:23:35.362Z,11.12
2018-10-05T10:26:03.746Z,12.40
2018-10-05T10:28:33.174Z,12.25
2018-10-05T10:31:01.349Z,11.55
2018-10-05T10:33:29.949Z,11.05
2018-10-05T10:35:58.341Z,11.38
2018-10-05T10:38:26.625Z,10.90
2018-10-05T10:40:55.017Z,10.28
2018-10-05T10:43:23.430Z,11.05
2018-10-05T10:45:51.745Z,10.70
2018-10-05T10:48:20.208Z,11.48
2018-10-05T10:50:48.519Z,12.03
2018-10-05T10:53:16.835Z,12.15
2018-10-05T10:55:46.133Z,12.30
2018-10-05T10:58:14.476Z,12.65
2018-10-05T11:00:42.813Z,11.88
2018-10-05T11:03:11.160Z,13.05
2018-10-05T11:05:39.593Z,12.10
2018-10-05T11:08:08.019Z,12.37
2018-10-05T11:10:36.533Z,13.30
2018-10-05T11:13:05.068Z,12.00
2018-10-05T11:15:33.937Z,12.28
2018-10-05T11:18:02.333Z,12.35
2018-10-05T11:20:31.602Z,12.47
2018-10-05T11:22:59.934Z,11.48
2018-10-05T11:25:28.337Z,13.53
2018-10-05T11:27:56.753Z,12.40
2018-10-05T11:30:25.128Z,12.35
2018-10-05T11:32:53.610Z,12.50
2018-10-05T11:35:21.985Z,13.75
2018-10-05T11:37:50.393Z,13.53
2018-10-05T11:40:18.720Z,12.10
2018-10-05T11:42:47.091Z,12.88
2018-10-05T11:45:15.510Z,12.37
2018-10-05T11:47:43.983Z,11.50
2018-10-05T11:50:12.332Z,11.53
2018-10-05T11:52:40.722Z,12.73
2018-10-05T11:55:09.065Z,13.53
2018-10-05T11:57:37.430Z,13.15
2018-10-05T12:00:06.094Z,11.85
2018-10-05T12:02:34.544Z,12.58
2018-10-05T12:05:03.065Z,12.63
2018-10-05T12:07:31.466Z,12.88
2018-10-05T12:09:59.872Z,12.65
2018-10-05T12:12:28.190Z,11.97
2018-10-05T12:14:58.315Z,12.53
2018-10-05T12:17:26.627Z,12.00
2018-10-05T12:19:55.027Z,12.47
2018-10-05T12:22:23.264Z,12.15
2018-10-05T12:24:51.573Z,12.93
2018-10-05T12:27:19.963Z,12.95
2018-10-05T12:29:48.243Z,13.00
2018-10-05T12:32:16.592Z,11.20
2018-10-05T12:34:44.864Z,12.10
2018-10-05T12:37:13.311Z,12.37
2018-10-05T12:39:41.681Z,11.25
2018-10-05T12:42:10.237Z,11.70
2018-10-05T12:44:38.628Z,11.12
2018-10-05T12:47:07.008Z,11.70
2018-10-05T12:49:35.508Z,11.55
2018-10-05T12:52:03.917Z,10.75
2018-10-05T12:54:33.930Z,10.00
2018-10-05T12:57:02.341Z,11.35
2018-10-05T12:59:31.216Z,11.10
2018-10-05T13:01:59.502Z,11.55
2018-10-05T13:04:27.805Z,11.45
2018-10-05T13:06:56.101Z,10.95
2018-10-05T13:09:24.426Z,10.35
2018-10-05T13:11:52.746Z,9.60
2018-10-05T13:14:21.609Z,9.40
2018-10-05T13:16:49.888Z,9.43
2018-10-05T13:19:18.209Z,9.05
2018-10-05T13:21:46.565Z,8.53
2018-10-05T13:24:14.841Z,8.58
2018-10-05T13:26:43.160Z,8.80
2018-10-05T13:29:11.499Z,8.23
2018-10-05T13:31:39.801Z,8.40
2018-10-05T13:34:08.128Z,7.87
2018-10-05T13:36:36.501Z,7.03
2018-10-05T13:39:07.670Z,7.95
2018-10-05T13:41:36.108Z,8.83
2018-10-05T13:44:04.509Z,8.90
2018-10-05T13:46:33.149Z,9.58
2018-10-05T13:49:01.597Z,9.90
2018-10-05T13:51:29.894Z,8.35
2018-10-05T13:53:58.180Z,8.38
2018-10-05T13:56:26.471Z,9.80
2018-10-05T13:58:54.779Z,10.15
2018-10-05T14:01:23.244Z,10.65
2018-10-05T14:03:51.621Z,8.85
2018-10-05T14:06:19.970Z,7.90
2018-10-05T14:08:48.237Z,7.15
2018-10-05T14:11:21.997Z,8.73
2018-10-05T14:13:50.612Z,7.45
2018-10-05T14:16:18.876Z,7.33
2018-10-05T14:18:47.301Z,6.67
2018-10-05T14:21:15.639Z,6.35
2018-10-05T14:23:44.020Z,6.33
2018-10-05T14:26:12.298Z,6.42
2018-10-05T14:28:40.608Z,7.20
2018-10-05T14:31:08.954Z,6.70
2018-10-05T14:33:37.290Z,5.03
2018-10-05T14:36:05.602Z,5.45
2018-10-05T14:38:33.899Z,4.50
2018-10-05T14:41:02.272Z,4.65
2018-10-05T14:43:30.592Z,5.08
2018-10-05T14:45:58.939Z,4.72
2018-10-05T14:48:27.232Z,4.25
2018-10-05T14:50:55.512Z,4.53
2018-10-05T14:53:23.874Z,4.80
2018-10-05T14:55:52.351Z,5.42
2018-10-05T14:58:20.686Z,5.30
2018-10-05T15:00:55.590Z,5.30
2018-10-05T15:03:24.081Z,5.55
2018-10-05T15:05:52.660Z,6.00
2018-10-05T15:08:21.093Z,6.10
2018-10-05T15:10:49.688Z,6.20
2018-10-05T15:13:18.126Z,5.28
2018-10-05T15:15:46.487Z,5.50
2018-10-05T15:18:14.930Z,5.40
2018-10-05T15:20:43.403Z,6.30
2018-10-05T15:23:12.339Z,5.83
2018-10-05T15:25:40.931Z,5.87
2018-10-05T15:28:09.523Z,5.78
2018-10-05T15:30:38.028Z,5.67
2018-10-05T15:33:06.561Z,5.80
2018-10-05T15:35:34.944Z,6.15
2018-10-05T15:38:03.479Z,5.17
2018-10-05T15:40:31.902Z,5.70
2018-10-05T15:43:00.469Z,4.65
2018-10-05T15:45:28.828Z,5.50
2018-10-05T15:47:57.351Z,4.55
2018-10-05T15:50:25.768Z,4.70
2018-10-05T15:52:54.188Z,4.60
2018-10-05T15:55:22.633Z,4.70
2018-10-05T15:57:51.176Z,5.10
2018-10-05T16:00:19.933Z,5.50
2018-10-05T16:02:48.298Z,5.17
2018-10-05T16:05:23.454Z,5.65
2018-10-05T16:07:51.896Z,5.40
2018-10-05T16:10:20.238Z,5.95
2018-10-05T16:12:48.637Z,5.50
2018-10-05T16:15:16.987Z,6.25
2018-10-05T16:17:45.313Z,6.17
2018-10-05T16:20:13.692Z,6.40
2018-10-05T16:22:41.991Z,6.72
2018-10-05T16:25:10.345Z,6.50
2018-10-05T16:27:38.733Z,6.30
2018-10-05T16:30:08.518Z,6.45
2018-10-05T16:32:36.838Z,6.35
2018-10-05T16:35:05.860Z,6.85
2018-10-05T16:37:34.501Z,6.85
2018-10-05T16:40:02.956Z,7.40
2018-10-05T16:42:31.568Z,7.70
2018-10-05T16:44:59.900Z,9.10
2018-10-05T16:47:28.233Z,8.78
2018-10-05T16:49:56.602Z,8.35
2018-10-05T16:52:24.946Z,8.28
2018-10-05T16:54:53.287Z,7.87
2018-10-05T16:57:21.783Z,7.20
2018-10-05T16:59:50.161Z,7.62
2018-10-05T17:02:18.456Z,7.62
2018-10-05T17:04:46.873Z,7.97
2018-10-05T17:07:15.249Z,9.40
2018-10-05T17:09:43.551Z,10.05
2018-10-05T17:12:12.010Z,10.82
2018-10-05T17:14:40.750Z,12.25
2018-10-05T17:17:09.297Z,11.25
2018-10-05T17:19:37.589Z,11.00
2018-10-05T17:22:05.960Z,10.58
2018-10-05T17:24:34.333Z,10.50
2018-10-05T17:27:02.744Z,10.70
2018-10-05T17:29:31.066Z,10.35
2018-10-05T17:31:59.385Z,10.50
2018-10-05T17:34:27.801Z,11.70
2018-10-05T17:36:56.210Z,10.93
2018-10-05T17:39:24.665Z,10.15
2018-10-05T17:41:53.039Z,10.70
2018-10-05T17:44:21.342Z,9.75
2018-10-05T17:46:49.757Z,11.15
2018-10-05T17:49:18.186Z,10.48
2018-10-05T17:51:46.589Z,9.60
2018-10-05T17:54:14.883Z,11.22
2018-10-05T17:56:43.192Z,10.20
2018-10-05T17:59:11.504Z,10.88
2018-10-05T18:01:40.026Z,9.78
2018-10-05T18:04:08.355Z,10.58
2018-10-05T18:06:36.715Z,10.25
2018-10-05T18:09:06.548Z,10.65
2018-10-05T18:11:35.012Z,10.43
2018-10-05T18:14:03.457Z,10.80
2018-10-05T18:16:31.837Z,10.98
2018-10-05T18:19:00.139Z,11.12
2018-10-05T18:21:28.652Z,11.43
2018-10-05T18:23:57.058Z,10.72
2018-10-05T18:26:25.548Z,11.93
2018-10-05T18:28:53.856Z,10.70
2018-10-05T18:31:22.181Z,10.20
2018-10-05T18:33:50.482Z,11.30
2018-10-05T18:36:18.897Z,12.10
2018-10-05T18:38:47.261Z,11.25
2018-10-05T18:41:15.729Z,11.45
2018-10-05T18:43:44.239Z,11.00
2018-10-05T18:46:12.604Z,11.05
2018-10-05T18:48:41.174Z,10.88
2018-10-05T18:51:09.834Z,10.50
2018-10-05T18:53:38.125Z,10.32
2018-10-05T18:56:17.587Z,11.18
2018-10-05T18:58:45.906Z,11.57
2018-10-05T19:01:14.247Z,10.72
2018-10-05T19:03:42.646Z,11.95
2018-10-05T19:06:11.050Z,11.05
2018-10-05T19:08:39.798Z,10.43
2018-10-05T19:11:08.305Z,11.22
2018-10-05T19:13:36.701Z,11.83
2018-10-05T19:16:05.069Z,11.83
2018-10-05T19:18:33.459Z,12.68
2018-10-05T19:21:01.803Z,12.45
2018-10-05T19:23:30.173Z,13.32
2018-10-05T19:25:58.634Z,13.13
2018-10-05T19:28:26.949Z,15.00
2018-10-05T19:30:55.299Z,14.28
2018-10-05T19:33:24.203Z,15.15
2018-10-05T19:35:52.873Z,14.53
2018-10-05T19:38:21.365Z,15.70
2018-10-05T19:40:49.720Z,15.93
2018-10-05T19:43:18.068Z,15.70
2018-10-05T19:45:46.362Z,15.65
2018-10-05T19:48:14.865Z,14.78
2018-10-05T19:50:43.236Z,15.63
2018-10-05T19:53:11.617Z,15.80
2018-10-05T19:55:39.873Z,15.43
2018-10-05T19:58:08.213Z,13.88
2018-10-05T20:00:36.808Z,14.40
2018-10-05T20:03:05.114Z,14.03
2018-10-05T20:05:33.604Z,14.45
2018-10-05T20:08:02.038Z,14.25
2018-10-05T20:10:30.500Z,14.23
2018-10-05T20:12:58.892Z,14.00
2018-10-05T20:15:27.661Z,13.32
2018-10-05T20:17:56.404Z,13.78
2018-10-05T20:20:25.038Z,13.78
2018-10-05T20:23:00.042Z,13.65
2018-10-05T20:25:28.419Z,12.95
2018-10-05T20:27:56.955Z,13.05
2018-10-05T20:30:25.282Z,13.35
2018-10-05T20:32:53.643Z,13.05
2018-10-05T20:35:21.945Z,12.30
2018-10-05T20:37:50.488Z,11.67
2018-10-05T20:40:18.675Z,12.73
2018-10-05T20:42:46.948Z,12.30
2018-10-05T20:45:16.181Z,11.93
2018-10-05T20:47:44.673Z,11.93
2018-10-05T20:50:13.656Z,13.53
2018-10-05T20:52:43.598Z,12.95
2018-10-05T20:55:12.161Z,11.55
2018-10-05T20:57:40.656Z,13.13
2018-10-05T21:00:09.202Z,12.93
2018-10-05T21:02:37.802Z,14.25
2018-10-05T21:05:06.202Z,14.38
2018-10-05T21:07:34.493Z,13.25
2018-10-05T21:10:02.815Z,14.25
2018-10-05T21:12:31.252Z,13.48
2018-10-05T21:14:59.579Z,12.82
2018-10-05T21:17:27.942Z,14.28
2018-10-05T21:19:56.522Z,13.98
2018-10-05T21:22:24.865Z,13.58
2018-10-05T21:24:53.481Z,13.00
2018-10-05T21:27:21.846Z,12.50
2018-10-05T21:29:50.160Z,13.63
2018-10-05T21:32:18.599Z,13.13
2018-10-05T21:34:46.927Z,12.28
2018-10-05T21:37:15.250Z,12.90
2018-10-05T21:39:43.609Z,12.47
2018-10-05T21:42:11.995Z,14.05
2018-10-05T21:44:40.597Z,12.55
2018-10-05T21:47:08.948Z,13.40
2018-10-05T21:49:40.501Z,14.63
2018-10-05T21:52:08.938Z,14.07
2018-10-05T21:54:38.245Z,12.40
2018-10-05T21:57:06.921Z,12.60
2018-10-05T21:59:51.878Z,13.15
2018-10-05T22:02:21.121Z,13.03
2018-10-05T22:04:49.552Z,14.45
2018-10-05T22:07:18.153Z,14.15
2018-10-05T22:09:46.889Z,13.10
2018-10-05T22:12:16.490Z,14.13
2018-10-05T22:14:44.833Z,13.85
2018-10-05T22:17:13.141Z,14.40
2018-10-05T22:19:41.682Z,14.55
2018-10-05T22:22:10.172Z,15.95
2018-10-05T22:24:39.061Z,15.43
2018-10-05T22:27:07.537Z,16.42
2018-10-05T22:29:36.311Z,16.25
2018-10-05T22:32:04.755Z,16.57
2018-10-05T22:34:33.045Z,15.78
2018-10-05T22:37:01.566Z,16.20
2018-10-05T22:39:30.238Z,17.02
2018-10-05T22:41:59.353Z,17.35
2018-10-05T22:44:27.859Z,15.65
2018-10-05T22:46:56.454Z,15.90
2018-10-05T22:49:24.822Z,16.10
2018-10-05T22:51:53.146Z,15.23
2018-10-05T22:54:21.634Z,15.25
2018-10-05T22:56:50.230Z,16.75
2018-10-05T22:59:18.601Z,15.30
2018-10-05T23:01:46.954Z,15.20
2018-10-05T23:04:15.439Z,15.37
2018-10-05T23:06:43.940Z,16.23
2018-10-05T23:09:12.418Z,15.43
2018-10-05T23:11:40.728Z,15.75
2018-10-05T23:14:09.030Z,14.80
2018-10-05T23:16:37.329Z,16.07
2018-10-05T23:19:06.844Z,16.40
2018-10-05T23:21:35.245Z,16.00
2018-10-05T23:24:03.614Z,15.90
2018-10-05T23:26:31.968Z,15.93
2018-10-05T23:29:00.301Z,16.67
2018-10-05T23:31:28.702Z,15.67
2018-10-05T23:36:31.657Z,15.78
2018-10-05T23:39:00.037Z,15.68
2018-10-05T23:41:28.391Z,15.77
2018-10-05T23:43:56.800Z,17.12
2018-10-05T23:46:25.177Z,15.30
2018-10-05T23:48:53.537Z,15.70
2018-10-05T23:51:21.845Z,15.08
2018-10-05T23:53:50.485Z,17.52
2018-10-05T23:56:18.837Z,17.25
2018-10-05T23:58:47.164Z,15.77
